sensor_id;sensor_type;location;lat;lon;timestamp;temperature;humidity
63371;DHT22;49504;48.336;14.472;2023-03-14T00:03:09;23.80;42.30
63371;DHT22;49504;48.336;14.472;2023-03-14T00:06:30;23.70;42.20
63371;DHT22;49504;48.336;14.472;2023-03-14T00:09:53;23.70;42.20
63371;DHT22;49504;48.336;14.472;2023-03-14T00:13:14;23.80;42.30
63371;DHT22;49504;48.336;14.472;2023-03-14T00:16:35;23.70;42.30
63371;DHT22;49504;48.336;14.472;2023-03-14T00:19:56;23.80;42.30
63371;DHT22;49504;48.336;14.472;2023-03-14T00:23:17;23.70;42.30
63371;DHT22;49504;48.336;14.472;2023-03-14T00:26:39;23.70;42.30
63371;DHT22;49504;48.336;14.472;2023-03-14T00:33:08;23.70;41.60
63371;DHT22;49504;48.336;14.472;2023-03-14T00:36:29;23.80;42.30
63371;DHT22;49504;48.336;14.472;2023-03-14T00:39:51;23.70;42.20
63371;DHT22;49504;48.336;14.472;2023-03-14T00:43:12;23.70;42.30
63371;DHT22;49504;48.336;14.472;2023-03-14T00:46:33;23.80;42.30
63371;DHT22;49504;48.336;14.472;2023-03-14T00:49:56;23.70;42.20
63371;DHT22;49504;48.336;14.472;2023-03-14T00:53:17;23.70;42.30
63371;DHT22;49504;48.336;14.472;2023-03-14T00:57:05;23.70;41.60
63371;DHT22;49504;48.336;14.472;2023-03-14T01:00:26;23.80;42.30
63371;DHT22;49504;48.336;14.472;2023-03-14T01:03:47;23.70;42.20
63371;DHT22;49504;48.336;14.472;2023-03-14T01:07:11;23.70;42.20
63371;DHT22;49504;48.336;14.472;2023-03-14T01:10:34;23.80;42.30
63371;DHT22;49504;48.336;14.472;2023-03-14T01:14:02;23.70;42.20
63371;DHT22;49504;48.336;14.472;2023-03-14T01:19:56;23.70;41.60
63371;DHT22;49504;48.336;14.472;2023-03-14T01:23:17;23.70;42.30
63371;DHT22;49504;48.336;14.472;2023-03-14T01:26:39;23.70;42.20
63371;DHT22;49504;48.336;14.472;2023-03-14T01:30:01;23.70;42.20
63371;DHT22;49504;48.336;14.472;2023-03-14T01:33:24;23.70;42.20
63371;DHT22;49504;48.336;14.472;2023-03-14T01:36:46;23.70;42.20
63371;DHT22;49504;48.336;14.472;2023-03-14T01:41:21;23.70;41.60
63371;DHT22;49504;48.336;14.472;2023-03-14T01:44:49;23.70;42.10
63371;DHT22;49504;48.336;14.472;2023-03-14T01:48:11;23.70;42.10
63371;DHT22;49504;48.336;14.472;2023-03-14T01:51:38;23.70;42.10
63371;DHT22;49504;48.336;14.472;2023-03-14T01:55:06;23.70;42.10
63371;DHT22;49504;48.336;14.472;2023-03-14T01:58:30;23.70;42.10
63371;DHT22;49504;48.336;14.472;2023-03-14T02:01:54;23.70;42.10
63371;DHT22;49504;48.336;14.472;2023-03-14T02:05:19;23.70;42.10
63371;DHT22;49504;48.336;14.472;2023-03-14T02:08:49;23.70;42.10
63371;DHT22;49504;48.336;14.472;2023-03-14T02:12:15;23.70;42.00
63371;DHT22;49504;48.336;14.472;2023-03-14T02:15:46;23.70;42.00
63371;DHT22;49504;48.336;14.472;2023-03-14T02:19:55;23.70;42.00
63371;DHT22;49504;48.336;14.472;2023-03-14T02:23:38;23.60;41.90
63371;DHT22;49504;48.336;14.472;2023-03-14T02:27:08;23.70;42.00
63371;DHT22;49504;48.336;14.472;2023-03-14T02:30:34;23.70;42.00
63371;DHT22;49504;48.336;14.472;2023-03-14T02:33:56;23.70;42.00
63371;DHT22;49504;48.336;14.472;2023-03-14T02:37:19;23.70;42.10
63371;DHT22;49504;48.336;14.472;2023-03-14T02:40:42;23.70;41.90
63371;DHT22;49504;48.336;14.472;2023-03-14T02:44:04;23.60;41.80
63371;DHT22;49504;48.336;14.472;2023-03-14T02:47:29;23.70;41.90
63371;DHT22;49504;48.336;14.472;2023-03-14T02:50:53;23.60;41.80
63371;DHT22;49504;48.336;14.472;2023-03-14T02:54:15;23.70;41.90
63371;DHT22;49504;48.336;14.472;2023-03-14T03:00:08;23.60;41.30
63371;DHT22;49504;48.336;14.472;2023-03-14T03:03:32;23.70;42.00
63371;DHT22;49504;48.336;14.472;2023-03-14T03:06:53;23.60;41.80
63371;DHT22;49504;48.336;14.472;2023-03-14T03:10:15;23.60;41.90
63371;DHT22;49504;48.336;14.472;2023-03-14T03:13:36;23.60;41.90
63371;DHT22;49504;48.336;14.472;2023-03-14T03:17:01;23.60;41.90
63371;DHT22;49504;48.336;14.472;2023-03-14T03:20:22;23.60;42.10
63371;DHT22;49504;48.336;14.472;2023-03-14T03:23:43;23.60;42.10
63371;DHT22;49504;48.336;14.472;2023-03-14T03:27:04;23.60;42.10
63371;DHT22;49504;48.336;14.472;2023-03-14T03:30:25;23.60;42.10
63371;DHT22;49504;48.336;14.472;2023-03-14T03:33:48;23.60;42.10
63371;DHT22;49504;48.336;14.472;2023-03-14T03:37:09;23.60;41.90
63371;DHT22;49504;48.336;14.472;2023-03-14T03:40:34;23.60;42.70
63371;DHT22;49504;48.336;14.472;2023-03-14T03:43:55;23.60;42.10
63371;DHT22;49504;48.336;14.472;2023-03-14T03:47:17;23.60;42.10
63371;DHT22;49504;48.336;14.472;2023-03-14T03:50:45;23.60;42.20
63371;DHT22;49504;48.336;14.472;2023-03-14T03:54:07;23.60;42.10
63371;DHT22;49504;48.336;14.472;2023-03-14T03:57:28;23.60;42.10
63371;DHT22;49504;48.336;14.472;2023-03-14T04:00:50;23.60;42.10
63371;DHT22;49504;48.336;14.472;2023-03-14T04:04:12;23.60;42.10
63371;DHT22;49504;48.336;14.472;2023-03-14T04:07:34;23.60;42.10
63371;DHT22;49504;48.336;14.472;2023-03-14T04:10:56;23.60;42.20
63371;DHT22;49504;48.336;14.472;2023-03-14T04:14:31;23.60;42.20
63371;DHT22;49504;48.336;14.472;2023-03-14T04:18:03;23.50;42.30
63371;DHT22;49504;48.336;14.472;2023-03-14T04:21:32;23.60;41.70
63371;DHT22;49504;48.336;14.472;2023-03-14T04:24:53;23.60;42.30
63371;DHT22;49504;48.336;14.472;2023-03-14T04:28:16;23.50;42.10
63371;DHT22;49504;48.336;14.472;2023-03-14T04:31:45;23.50;42.10
63371;DHT22;49504;48.336;14.472;2023-03-14T04:35:07;23.50;42.00
63371;DHT22;49504;48.336;14.472;2023-03-14T04:38:30;23.60;42.20
63371;DHT22;49504;48.336;14.472;2023-03-14T04:41:52;23.50;42.10
63371;DHT22;49504;48.336;14.472;2023-03-14T04:45:13;23.60;42.30
63371;DHT22;49504;48.336;14.472;2023-03-14T04:48:36;23.50;42.10
63371;DHT22;49504;48.336;14.472;2023-03-14T04:51:57;23.60;42.10
63371;DHT22;49504;48.336;14.472;2023-03-14T04:55:22;23.60;42.10
63371;DHT22;49504;48.336;14.472;2023-03-14T04:58:44;23.60;42.10
63371;DHT22;49504;48.336;14.472;2023-03-14T05:02:05;23.60;42.10
63371;DHT22;49504;48.336;14.472;2023-03-14T05:05:46;23.60;42.00
63371;DHT22;49504;48.336;14.472;2023-03-14T05:09:26;23.60;41.90
63371;DHT22;49504;48.336;14.472;2023-03-14T05:12:58;23.60;42.00
63371;DHT22;49504;48.336;14.472;2023-03-14T05:16:38;23.60;42.00
63371;DHT22;49504;48.336;14.472;2023-03-14T05:20:13;23.60;42.00
63371;DHT22;49504;48.336;14.472;2023-03-14T05:24:13;23.60;42.20
63371;DHT22;49504;48.336;14.472;2023-03-14T05:30:26;23.60;41.60
63371;DHT22;49504;48.336;14.472;2023-03-14T05:34:06;23.60;42.20
63371;DHT22;49504;48.336;14.472;2023-03-14T05:37:49;23.60;42.20
63371;DHT22;49504;48.336;14.472;2023-03-14T05:43:46;23.60;41.60
63371;DHT22;49504;48.336;14.472;2023-03-14T05:47:19;23.60;41.90
63371;DHT22;49504;48.336;14.472;2023-03-14T05:51:03;23.60;41.90
63371;DHT22;49504;48.336;14.472;2023-03-14T05:54:35;23.60;42.10
63371;DHT22;49504;48.336;14.472;2023-03-14T05:58:23;23.60;41.70
63371;DHT22;49504;48.336;14.472;2023-03-14T06:07:50;23.50;41.30
63371;DHT22;49504;48.336;14.472;2023-03-14T06:11:11;23.60;42.00
63371;DHT22;49504;48.336;14.472;2023-03-14T06:14:33;23.50;41.90
63371;DHT22;49504;48.336;14.472;2023-03-14T06:17:54;23.50;42.00
63371;DHT22;49504;48.336;14.472;2023-03-14T06:21:16;23.50;42.00
63371;DHT22;49504;48.336;14.472;2023-03-14T06:24:39;23.50;42.00
63371;DHT22;49504;48.336;14.472;2023-03-14T06:28:00;23.50;42.00
63371;DHT22;49504;48.336;14.472;2023-03-14T06:31:21;23.50;42.10
63371;DHT22;49504;48.336;14.472;2023-03-14T06:34:48;23.50;42.00
63371;DHT22;49504;48.336;14.472;2023-03-14T06:38:09;23.50;42.00
63371;DHT22;49504;48.336;14.472;2023-03-14T06:41:33;23.50;42.00
63371;DHT22;49504;48.336;14.472;2023-03-14T06:44:55;23.50;42.00
63371;DHT22;49504;48.336;14.472;2023-03-14T06:48:19;23.50;41.90
63371;DHT22;49504;48.336;14.472;2023-03-14T06:51:45;23.50;41.70
63371;DHT22;49504;48.336;14.472;2023-03-14T06:55:07;23.50;41.80
63371;DHT22;49504;48.336;14.472;2023-03-14T07:00:25;23.50;41.30
63371;DHT22;49504;48.336;14.472;2023-03-14T07:03:49;23.50;42.00
63371;DHT22;49504;48.336;14.472;2023-03-14T07:08:13;23.50;41.40
63371;DHT22;49504;48.336;14.472;2023-03-14T07:11:34;23.50;42.10
63371;DHT22;49504;48.336;14.472;2023-03-14T07:14:56;23.50;42.10
63371;DHT22;49504;48.336;14.472;2023-03-14T07:18:17;23.50;42.10
63371;DHT22;49504;48.336;14.472;2023-03-14T07:21:39;23.40;42.00
63371;DHT22;49504;48.336;14.472;2023-03-14T07:25:06;23.50;42.00
63371;DHT22;49504;48.336;14.472;2023-03-14T07:28:28;23.50;42.10
63371;DHT22;49504;48.336;14.472;2023-03-14T07:32:09;23.50;42.00
63371;DHT22;49504;48.336;14.472;2023-03-14T07:35:30;23.50;42.10
63371;DHT22;49504;48.336;14.472;2023-03-14T07:38:51;23.50;42.00
63371;DHT22;49504;48.336;14.472;2023-03-14T07:42:14;23.50;41.90
63371;DHT22;49504;48.336;14.472;2023-03-14T07:45:52;23.50;41.90
63371;DHT22;49504;48.336;14.472;2023-03-14T07:49:13;23.40;41.80
63371;DHT22;49504;48.336;14.472;2023-03-14T07:52:34;23.50;41.90
63371;DHT22;49504;48.336;14.472;2023-03-14T07:55:55;23.40;41.70
63371;DHT22;49504;48.336;14.472;2023-03-14T07:59:17;23.40;41.70
63371;DHT22;49504;48.336;14.472;2023-03-14T08:02:39;23.50;41.70
63371;DHT22;49504;48.336;14.472;2023-03-14T08:06:00;23.40;41.80
63371;DHT22;49504;48.336;14.472;2023-03-14T08:09:21;23.40;41.80
63371;DHT22;49504;48.336;14.472;2023-03-14T08:12:42;23.40;41.80
63371;DHT22;49504;48.336;14.472;2023-03-14T08:16:05;23.40;41.80
63371;DHT22;49504;48.336;14.472;2023-03-14T08:19:27;23.50;42.50
63371;DHT22;49504;48.336;14.472;2023-03-14T08:22:48;23.40;41.80
63371;DHT22;49504;48.336;14.472;2023-03-14T08:26:10;23.40;41.80
63371;DHT22;49504;48.336;14.472;2023-03-14T08:29:31;23.40;41.80
63371;DHT22;49504;48.336;14.472;2023-03-14T08:32:53;23.40;41.90
63371;DHT22;49504;48.336;14.472;2023-03-14T08:36:16;23.40;41.80
63371;DHT22;49504;48.336;14.472;2023-03-14T08:39:38;23.40;41.80
63371;DHT22;49504;48.336;14.472;2023-03-14T08:42:59;23.40;41.80
63371;DHT22;49504;48.336;14.472;2023-03-14T08:46:20;23.40;41.80
63371;DHT22;49504;48.336;14.472;2023-03-14T08:49:42;23.40;41.90
63371;DHT22;49504;48.336;14.472;2023-03-14T08:53:03;23.40;41.80
63371;DHT22;49504;48.336;14.472;2023-03-14T08:56:25;23.40;41.80
63371;DHT22;49504;48.336;14.472;2023-03-14T08:59:46;23.40;41.80
63371;DHT22;49504;48.336;14.472;2023-03-14T09:03:07;23.40;41.80
63371;DHT22;49504;48.336;14.472;2023-03-14T09:06:30;23.40;41.80
63371;DHT22;49504;48.336;14.472;2023-03-14T09:12:57;23.40;41.20
63371;DHT22;49504;48.336;14.472;2023-03-14T09:16:19;23.40;41.80
63371;DHT22;49504;48.336;14.472;2023-03-14T09:19:40;23.40;41.80
63371;DHT22;49504;48.336;14.472;2023-03-14T09:23:18;23.40;41.20
63371;DHT22;49504;48.336;14.472;2023-03-14T09:26:39;23.30;41.80
63371;DHT22;49504;48.336;14.472;2023-03-14T09:30:00;23.40;41.80
63371;DHT22;49504;48.336;14.472;2023-03-14T09:33:22;23.40;41.80
63371;DHT22;49504;48.336;14.472;2023-03-14T09:38:44;23.30;41.20
63371;DHT22;49504;48.336;14.472;2023-03-14T09:42:06;23.40;41.80
63371;DHT22;49504;48.336;14.472;2023-03-14T09:45:32;23.40;41.80
63371;DHT22;49504;48.336;14.472;2023-03-14T09:50:16;23.30;41.20
63371;DHT22;49504;48.336;14.472;2023-03-14T09:53:41;23.30;41.80
63371;DHT22;49504;48.336;14.472;2023-03-14T09:57:03;23.30;41.90
63371;DHT22;49504;48.336;14.472;2023-03-14T10:00:27;23.30;41.90
63371;DHT22;49504;48.336;14.472;2023-03-14T10:03:51;23.30;41.90
63371;DHT22;49504;48.336;14.472;2023-03-14T10:07:18;23.40;42.00
63371;DHT22;49504;48.336;14.472;2023-03-14T10:10:41;23.30;41.80
63371;DHT22;49504;48.336;14.472;2023-03-14T10:14:05;23.40;42.30
63371;DHT22;49504;48.336;14.472;2023-03-14T10:17:27;23.30;41.90
63371;DHT22;49504;48.336;14.472;2023-03-14T10:20:52;23.30;41.90
63371;DHT22;49504;48.336;14.472;2023-03-14T10:24:27;23.30;41.80
63371;DHT22;49504;48.336;14.472;2023-03-14T10:27:50;23.30;41.90
63371;DHT22;49504;48.336;14.472;2023-03-14T10:31:11;23.40;42.00
63371;DHT22;49504;48.336;14.472;2023-03-14T10:34:34;23.30;41.80
63371;DHT22;49504;48.336;14.472;2023-03-14T10:37:57;23.30;41.90
63371;DHT22;49504;48.336;14.472;2023-03-14T10:41:25;23.30;41.90
63371;DHT22;49504;48.336;14.472;2023-03-14T10:45:37;23.30;41.50
63371;DHT22;49504;48.336;14.472;2023-03-14T10:49:05;23.30;42.10
63371;DHT22;49504;48.336;14.472;2023-03-14T10:52:28;23.30;42.10
63371;DHT22;49504;48.336;14.472;2023-03-14T10:55:49;23.30;42.10
63371;DHT22;49504;48.336;14.472;2023-03-14T10:59:13;23.30;42.00
63371;DHT22;49504;48.336;14.472;2023-03-14T11:02:48;23.30;42.10
63371;DHT22;49504;48.336;14.472;2023-03-14T11:06:19;23.30;41.90
63371;DHT22;49504;48.336;14.472;2023-03-14T11:09:45;23.30;41.90
63371;DHT22;49504;48.336;14.472;2023-03-14T11:15:25;23.30;41.40
63371;DHT22;49504;48.336;14.472;2023-03-14T11:22:36;23.30;41.90
63371;DHT22;49504;48.336;14.472;2023-03-14T11:26:05;23.30;42.00
63371;DHT22;49504;48.336;14.472;2023-03-14T11:29:39;23.20;41.90
63371;DHT22;49504;48.336;14.472;2023-03-14T11:33:05;23.20;41.90
63371;DHT22;49504;48.336;14.472;2023-03-14T11:36:35;23.20;42.10
63371;DHT22;49504;48.336;14.472;2023-03-14T11:42:34;23.20;41.30
63371;DHT22;49504;48.336;14.472;2023-03-14T11:46:01;23.20;42.10
63371;DHT22;49504;48.336;14.472;2023-03-14T11:49:34;23.20;42.00
63371;DHT22;49504;48.336;14.472;2023-03-14T11:53:01;23.20;42.00
63371;DHT22;49504;48.336;14.472;2023-03-14T11:56:31;23.20;42.10
63371;DHT22;49504;48.336;14.472;2023-03-14T12:00:00;23.20;42.00
63371;DHT22;49504;48.336;14.472;2023-03-14T12:03:36;23.20;42.20
63371;DHT22;49504;48.336;14.472;2023-03-14T12:07:04;23.20;41.80
63371;DHT22;49504;48.336;14.472;2023-03-14T12:10:27;23.20;41.70
63371;DHT22;49504;48.336;14.472;2023-03-14T12:13:50;23.20;41.60
63371;DHT22;49504;48.336;14.472;2023-03-14T12:17:20;23.20;41.50
63371;DHT22;49504;48.336;14.472;2023-03-14T12:21:08;23.20;41.00
63371;DHT22;49504;48.336;14.472;2023-03-14T12:24:33;23.20;41.60
63371;DHT22;49504;48.336;14.472;2023-03-14T12:28:17;23.20;41.30
63371;DHT22;49504;48.336;14.472;2023-03-14T12:31:42;23.20;41.60
63371;DHT22;49504;48.336;14.472;2023-03-14T12:39:00;23.20;41.70
63371;DHT22;49504;48.336;14.472;2023-03-14T12:42:51;23.30;41.60
63371;DHT22;49504;48.336;14.472;2023-03-14T12:46:23;23.40;41.50
63371;DHT22;49504;48.336;14.472;2023-03-14T12:49:46;23.40;41.50
63371;DHT22;49504;48.336;14.472;2023-03-14T12:57:24;23.50;41.20
63371;DHT22;49504;48.336;14.472;2023-03-14T13:00:54;23.50;41.00
63371;DHT22;49504;48.336;14.472;2023-03-14T13:04:16;23.60;40.90
63371;DHT22;49504;48.336;14.472;2023-03-14T13:08:03;23.60;40.70
63371;DHT22;49504;48.336;14.472;2023-03-14T13:11:33;23.60;40.80
63371;DHT22;49504;48.336;14.472;2023-03-14T13:14:58;23.70;40.70
63371;DHT22;49504;48.336;14.472;2023-03-14T13:18:23;23.70;40.60
63371;DHT22;49504;48.336;14.472;2023-03-14T13:21:48;23.70;40.90
63371;DHT22;49504;48.336;14.472;2023-03-14T13:25:11;23.70;40.60
63371;DHT22;49504;48.336;14.472;2023-03-14T13:28:35;23.70;40.60
63371;DHT22;49504;48.336;14.472;2023-03-14T13:31:59;23.70;40.60
63371;DHT22;49504;48.336;14.472;2023-03-14T13:35:23;23.70;40.60
63371;DHT22;49504;48.336;14.472;2023-03-14T13:38:55;23.80;40.70
63371;DHT22;49504;48.336;14.472;2023-03-14T13:45:15;23.80;40.20
63371;DHT22;49504;48.336;14.472;2023-03-14T13:48:42;23.80;40.60
63371;DHT22;49504;48.336;14.472;2023-03-14T13:52:23;23.80;40.50
63371;DHT22;49504;48.336;14.472;2023-03-14T13:55:49;23.80;40.70
63371;DHT22;49504;48.336;14.472;2023-03-14T13:59:24;23.80;40.70
63371;DHT22;49504;48.336;14.472;2023-03-14T14:03:08;23.80;41.00
63371;DHT22;49504;48.336;14.472;2023-03-14T14:06:44;23.70;41.00
63371;DHT22;49504;48.336;14.472;2023-03-14T14:10:17;23.70;41.20
63371;DHT22;49504;48.336;14.472;2023-03-14T14:13:47;23.70;41.10
63371;DHT22;49504;48.336;14.472;2023-03-14T14:17:12;23.70;41.80
63371;DHT22;49504;48.336;14.472;2023-03-14T14:20:38;23.70;41.20
63371;DHT22;49504;48.336;14.472;2023-03-14T14:24:01;23.70;41.30
63371;DHT22;49504;48.336;14.472;2023-03-14T14:30:33;23.60;40.80
63371;DHT22;49504;48.336;14.472;2023-03-14T14:33:56;23.60;41.70
63371;DHT22;49504;48.336;14.472;2023-03-14T14:37:20;23.60;41.80
63371;DHT22;49504;48.336;14.472;2023-03-14T14:40:45;23.50;41.60
63371;DHT22;49504;48.336;14.472;2023-03-14T14:44:07;23.50;41.70
63371;DHT22;49504;48.336;14.472;2023-03-14T14:51:50;23.50;41.00
63371;DHT22;49504;48.336;14.472;2023-03-14T14:55:13;23.50;41.80
63371;DHT22;49504;48.336;14.472;2023-03-14T14:58:41;23.50;41.80
63371;DHT22;49504;48.336;14.472;2023-03-14T15:02:05;23.50;41.80
63371;DHT22;49504;48.336;14.472;2023-03-14T15:05:38;23.50;41.80
63371;DHT22;49504;48.336;14.472;2023-03-14T15:09:01;23.50;41.70
63371;DHT22;49504;48.336;14.472;2023-03-14T15:12:22;23.50;41.60
63371;DHT22;49504;48.336;14.472;2023-03-14T15:15:43;23.50;41.60
63371;DHT22;49504;48.336;14.472;2023-03-14T15:19:10;23.50;41.60
63371;DHT22;49504;48.336;14.472;2023-03-14T15:22:33;23.50;41.60
63371;DHT22;49504;48.336;14.472;2023-03-14T15:25:55;23.50;41.70
63371;DHT22;49504;48.336;14.472;2023-03-14T15:29:16;23.50;41.70
63371;DHT22;49504;48.336;14.472;2023-03-14T15:32:38;23.50;41.70
63371;DHT22;49504;48.336;14.472;2023-03-14T15:35:59;23.50;41.70
63371;DHT22;49504;48.336;14.472;2023-03-14T15:39:20;23.50;41.70
63371;DHT22;49504;48.336;14.472;2023-03-14T15:42:42;23.50;41.60
63371;DHT22;49504;48.336;14.472;2023-03-14T15:46:03;23.50;41.70
63371;DHT22;49504;48.336;14.472;2023-03-14T15:49:25;23.40;41.50
63371;DHT22;49504;48.336;14.472;2023-03-14T15:53:09;23.50;41.00
63371;DHT22;49504;48.336;14.472;2023-03-14T15:56:30;23.50;41.70
63371;DHT22;49504;48.336;14.472;2023-03-14T15:59:51;23.50;42.30
63371;DHT22;49504;48.336;14.472;2023-03-14T16:04:00;23.50;41.00
63371;DHT22;49504;48.336;14.472;2023-03-14T16:07:22;23.50;41.70
63371;DHT22;49504;48.336;14.472;2023-03-14T16:10:43;23.50;41.70
63371;DHT22;49504;48.336;14.472;2023-03-14T16:14:04;23.50;41.70
63371;DHT22;49504;48.336;14.472;2023-03-14T16:17:25;23.50;41.60
63371;DHT22;49504;48.336;14.472;2023-03-14T16:20:53;23.50;41.70
63371;DHT22;49504;48.336;14.472;2023-03-14T16:24:15;23.50;41.70
63371;DHT22;49504;48.336;14.472;2023-03-14T16:27:36;23.50;41.70
63371;DHT22;49504;48.336;14.472;2023-03-14T16:31:01;23.50;41.70
63371;DHT22;49504;48.336;14.472;2023-03-14T16:34:22;23.50;41.70
63371;DHT22;49504;48.336;14.472;2023-03-14T16:37:45;23.50;41.70
63371;DHT22;49504;48.336;14.472;2023-03-14T16:41:10;23.50;41.80
63371;DHT22;49504;48.336;14.472;2023-03-14T16:44:35;23.50;41.80
63371;DHT22;49504;48.336;14.472;2023-03-14T16:47:56;23.50;41.80
63371;DHT22;49504;48.336;14.472;2023-03-14T16:51:17;23.50;41.80
63371;DHT22;49504;48.336;14.472;2023-03-14T16:54:40;23.50;41.70
63371;DHT22;49504;48.336;14.472;2023-03-14T16:58:01;23.50;41.70
63371;DHT22;49504;48.336;14.472;2023-03-14T17:01:22;23.50;41.90
63371;DHT22;49504;48.336;14.472;2023-03-14T17:04:43;23.50;42.00
63371;DHT22;49504;48.336;14.472;2023-03-14T17:08:04;23.50;41.90
63371;DHT22;49504;48.336;14.472;2023-03-14T17:11:27;23.50;42.10
63371;DHT22;49504;48.336;14.472;2023-03-14T17:14:48;23.50;42.00
63371;DHT22;49504;48.336;14.472;2023-03-14T17:18:09;23.50;41.90
63371;DHT22;49504;48.336;14.472;2023-03-14T17:22:48;23.50;41.20
63371;DHT22;49504;48.336;14.472;2023-03-14T17:26:09;23.50;41.90
63371;DHT22;49504;48.336;14.472;2023-03-14T17:29:30;23.50;41.70
63371;DHT22;49504;48.336;14.472;2023-03-14T17:32:52;23.50;41.80
63371;DHT22;49504;48.336;14.472;2023-03-14T17:36:13;23.50;41.80
63371;DHT22;49504;48.336;14.472;2023-03-14T17:39:36;23.50;41.80
63371;DHT22;49504;48.336;14.472;2023-03-14T17:42:58;23.50;41.90
63371;DHT22;49504;48.336;14.472;2023-03-14T17:46:20;23.50;41.90
63371;DHT22;49504;48.336;14.472;2023-03-14T17:49:42;23.50;41.90
63371;DHT22;49504;48.336;14.472;2023-03-14T17:53:03;23.50;41.90
63371;DHT22;49504;48.336;14.472;2023-03-14T17:56:26;23.50;41.90
63371;DHT22;49504;48.336;14.472;2023-03-14T18:02:01;23.50;41.40
63371;DHT22;49504;48.336;14.472;2023-03-14T18:05:23;23.50;42.00
63371;DHT22;49504;48.336;14.472;2023-03-14T18:08:44;23.50;41.90
63371;DHT22;49504;48.336;14.472;2023-03-14T18:13:47;23.50;41.30
63371;DHT22;49504;48.336;14.472;2023-03-14T18:17:08;23.50;42.00
63371;DHT22;49504;48.336;14.472;2023-03-14T18:20:30;23.50;42.00
63371;DHT22;49504;48.336;14.472;2023-03-14T18:23:51;23.50;41.90
63371;DHT22;49504;48.336;14.472;2023-03-14T18:27:12;23.50;41.90
63371;DHT22;49504;48.336;14.472;2023-03-14T18:30:34;23.50;41.90
63371;DHT22;49504;48.336;14.472;2023-03-14T18:33:55;23.50;41.80
63371;DHT22;49504;48.336;14.472;2023-03-14T18:37:17;23.50;42.00
63371;DHT22;49504;48.336;14.472;2023-03-14T18:40:38;23.50;41.90
63371;DHT22;49504;48.336;14.472;2023-03-14T18:43:59;23.50;41.80
63371;DHT22;49504;48.336;14.472;2023-03-14T18:47:22;23.50;41.70
63371;DHT22;49504;48.336;14.472;2023-03-14T18:51:41;23.50;41.10
63371;DHT22;49504;48.336;14.472;2023-03-14T18:55:02;23.50;41.60
63371;DHT22;49504;48.336;14.472;2023-03-14T18:58:24;23.50;41.50
63371;DHT22;49504;48.336;14.472;2023-03-14T19:01:45;23.50;41.60
63371;DHT22;49504;48.336;14.472;2023-03-14T19:05:07;23.50;41.70
63371;DHT22;49504;48.336;14.472;2023-03-14T19:08:29;23.50;41.90
63371;DHT22;49504;48.336;14.472;2023-03-14T19:11:50;23.50;41.70
63371;DHT22;49504;48.336;14.472;2023-03-14T19:15:12;23.50;42.30
63371;DHT22;49504;48.336;14.472;2023-03-14T19:18:33;23.50;41.60
63371;DHT22;49504;48.336;14.472;2023-03-14T19:21:54;23.50;41.60
63371;DHT22;49504;48.336;14.472;2023-03-14T19:25:16;23.60;41.70
63371;DHT22;49504;48.336;14.472;2023-03-14T19:28:38;23.50;41.50
63371;DHT22;49504;48.336;14.472;2023-03-14T19:33:17;23.50;41.00
63371;DHT22;49504;48.336;14.472;2023-03-14T19:36:39;23.50;41.50
63371;DHT22;49504;48.336;14.472;2023-03-14T19:40:00;23.50;41.50
63371;DHT22;49504;48.336;14.472;2023-03-14T19:43:21;23.50;41.30
63371;DHT22;49504;48.336;14.472;2023-03-14T19:46:42;23.50;41.30
63371;DHT22;49504;48.336;14.472;2023-03-14T19:52:17;23.50;40.80
63371;DHT22;49504;48.336;14.472;2023-03-14T19:55:38;23.60;41.40
63371;DHT22;49504;48.336;14.472;2023-03-14T19:59:00;23.50;41.20
63371;DHT22;49504;48.336;14.472;2023-03-14T20:02:22;23.50;41.20
63371;DHT22;49504;48.336;14.472;2023-03-14T20:05:43;23.50;41.30
63371;DHT22;49504;48.336;14.472;2023-03-14T20:09:05;23.50;41.20
63371;DHT22;49504;48.336;14.472;2023-03-14T20:12:29;23.50;41.20
63371;DHT22;49504;48.336;14.472;2023-03-14T20:15:50;23.50;41.20
63371;DHT22;49504;48.336;14.472;2023-03-14T20:19:12;23.60;41.30
63371;DHT22;49504;48.336;14.472;2023-03-14T20:22:34;23.50;41.10
63371;DHT22;49504;48.336;14.472;2023-03-14T20:25:58;23.60;41.20
63371;DHT22;49504;48.336;14.472;2023-03-14T20:29:19;23.60;41.20
63371;DHT22;49504;48.336;14.472;2023-03-14T20:32:41;23.50;41.10
63371;DHT22;49504;48.336;14.472;2023-03-14T20:37:53;23.50;40.60
63371;DHT22;49504;48.336;14.472;2023-03-14T20:41:15;23.50;41.10
63371;DHT22;49504;48.336;14.472;2023-03-14T20:44:36;23.60;41.20
63371;DHT22;49504;48.336;14.472;2023-03-14T20:47:58;23.60;41.20
63371;DHT22;49504;48.336;14.472;2023-03-14T20:51:19;23.50;41.10
63371;DHT22;49504;48.336;14.472;2023-03-14T20:54:41;23.60;41.10
63371;DHT22;49504;48.336;14.472;2023-03-14T20:58:02;23.60;41.10
63371;DHT22;49504;48.336;14.472;2023-03-14T21:01:24;23.60;41.10
63371;DHT22;49504;48.336;14.472;2023-03-14T21:04:45;23.60;41.10
63371;DHT22;49504;48.336;14.472;2023-03-14T21:08:06;23.60;41.10
63371;DHT22;49504;48.336;14.472;2023-03-14T21:11:28;23.50;41.00
63371;DHT22;49504;48.336;14.472;2023-03-14T21:14:50;23.60;41.00
63371;DHT22;49504;48.336;14.472;2023-03-14T21:18:11;23.60;41.10
63371;DHT22;49504;48.336;14.472;2023-03-14T21:21:32;23.60;41.10
63371;DHT22;49504;48.336;14.472;2023-03-14T21:24:53;23.50;41.30
63371;DHT22;49504;48.336;14.472;2023-03-14T21:28:16;23.50;41.20
63371;DHT22;49504;48.336;14.472;2023-03-14T21:31:37;23.50;41.30
63371;DHT22;49504;48.336;14.472;2023-03-14T21:34:58;23.60;41.50
63371;DHT22;49504;48.336;14.472;2023-03-14T21:38:19;23.60;41.50
63371;DHT22;49504;48.336;14.472;2023-03-14T21:41:40;23.50;41.50
63371;DHT22;49504;48.336;14.472;2023-03-14T21:45:04;23.60;41.50
63371;DHT22;49504;48.336;14.472;2023-03-14T21:48:26;23.60;41.40
63371;DHT22;49504;48.336;14.472;2023-03-14T21:51:47;23.60;41.40
63371;DHT22;49504;48.336;14.472;2023-03-14T21:55:08;23.60;42.20
63371;DHT22;49504;48.336;14.472;2023-03-14T21:58:29;23.60;41.50
63371;DHT22;49504;48.336;14.472;2023-03-14T22:01:52;23.60;41.50
63371;DHT22;49504;48.336;14.472;2023-03-14T22:06:08;23.60;41.00
63371;DHT22;49504;48.336;14.472;2023-03-14T22:09:30;23.60;41.60
63371;DHT22;49504;48.336;14.472;2023-03-14T22:12:51;23.60;41.60
63371;DHT22;49504;48.336;14.472;2023-03-14T22:16:12;23.60;41.60
63371;DHT22;49504;48.336;14.472;2023-03-14T22:19:33;23.60;41.70
63371;DHT22;49504;48.336;14.472;2023-03-14T22:22:56;23.60;41.70